PAK West SW4 at Jamestown on Jan 7th 2022, runway excursion on landing

Last Update: January 7, 2022 / 16:37:54 GMT/Zulu time

Bookmark this article
Incident Facts

Date of incident
Jan 7, 2022

Classification
Incident

Aircraft Registration
N852DR

ICAO Type Designator
SW4

Airport ICAO Code
KJHW

A PAK West Airlines Swearingen SA227-DC Metro 23, registration N852DR performing freight flight PKW-836 from Charleston,SC to Jamestown,NY (USA) with 2 crew, landed on Jamestown's runway 25 at 04:07L (09:07Z) but suffered a runway excursion. There were no injuries.

The FAA reported: "AIRCRAFT LANDED AND EXPERIENCED A RUNWAY EXCURSION DUE TO SNOW ON THE RUNWAY, JAMESTOWN, NY.", there were no injuries, the damage is unknown. The occurrence was rated an incident.



Metars:
KJHW 071106Z AUTO 25012KT 1 3/4SM -SN BR BKN009 OVC014 M08/M09 A2983 RMK AO2 CIG 007V010 P0000 FZRANO=
KJHW 071103Z AUTO 25010KT 2SM -SN BR SCT009 OVC016 M08/M09 A2983 RMK AO2 P0000 FZRANO=
KJHW 071056Z AUTO 24012KT 2 1/2SM -SN BR BKN011 OVC018 M08/M09 A2983 RMK AO2 CIG 007V013 SLP134 P0000 T10781089 FZRANO=
KJHW 071035Z AUTO 24011KT 2 1/2SM -SN BR BKN010 OVC021 M08/M09 A2983 RMK AO2 CIG 006V013 P0000 FZRANO=
KJHW 071027Z AUTO 24010KT 1 3/4SM -SN BR FEW008 BKN012 OVC021 M08/M09 A2983 RMK AO2 P0000 FZRANO=
KJHW 070956Z AUTO 25015KT 3SM -SN BR BKN013 OVC021 M08/M09 A2981 RMK AO2 SLP128 P0000 T10781094 FZRANO=
KJHW 070948Z AUTO 25012KT 2 1/2SM -SN BR BKN013 OVC019 M08/M09 A2981 RMK AO2 P0000 FZRANO=
KJHW 070932Z AUTO 24010KT 4SM -SN BR BKN013 OVC019 M08/M09 A2981 RMK AO2 P0000 FZRANO=
KJHW 070856Z AUTO 25012KT 5SM -SN BR OVC015 M07/M09 A2981 RMK AO2 SLP125 P0000 60000 T10721094 50007 FZRANO=
KJHW 070756Z AUTO 24010KT 10SM -SN BKN017 OVC045 M08/M09 A2981 RMK AO2 SNE27B52 SLP126 P0000 T10781089 FZRANO=
KJHW 070748Z AUTO 25008KT 10SM BKN017 OVC045 M08/M09 A2981 RMK AO2 SNE27 P0000 FZRANO=
KJHW 070656Z AUTO 24006KT 9SM -SN BKN035 OVC043 M08/M09 A2980 RMK AO2 SNB48 SLP122 P0000 T10781094 FZRANO=
KJHW 070556Z AUTO 24005KT 10SM BKN041 OVC110 M08/M09 A2979 RMK AO2 SNE35 SLP120 P0000 60000 T10831094 11067 21083 58013 FZRANO=
KJHW 070456Z AUTO 24008KT 9SM -SN OVC037 M08/M09 A2981 RMK AO2 SLP126 P0000 T10781094 410611100 FZRANO=
Aircraft Registration Data
Registration mark
N852DR
Country of Registration
United States
Date of Registration
MAdpAenlkAnpAAkfi Subscribe to unlock
Manufacturer
FAIRCHILD
Aircraft Model / Type
SA227-DC
Number of Seats
ICAO Aircraft Type
SW4
Year of Manufacture
Serial Number
Aircraft Address / Mode S Code (HEX)
Engine Count
Engine Manufacturer
Engine Model
AiibmfAjbbhe Subscribe to unlock
Engine Type
Main Owner
PcAfeA kfcekficqAmkmphlphhf dccedddk hhdkbcimAplilAe qhb jleceelqAel ipc bpkehjfbpdmqjfgfqh Subscribe to unlock
Incident Facts

Date of incident
Jan 7, 2022

Classification
Incident

Aircraft Registration
N852DR

ICAO Type Designator
SW4

Airport ICAO Code
KJHW

This article is published under license from Avherald.com. © of text by Avherald.com.
Article source

You can read 2 more free articles without a subscription.

Subscribe now and continue reading without any limits!

Are you a subscriber? Login
Subscribe

Read unlimited articles and receive our daily update briefing. Gain better insights into what is happening in commercial aviation safety.

Free newsletter

Want to know more and stay ahead? Get our free weekly newsletter and join 5353 existing subscribers.

By subscribing, you accept our terms and conditions and confirm that you've read our privacy policy.

Send tip

Support AeroInside by sending a small tip amount.

Newest articles

Subscribe today

Are you researching aviation incidents? Get access to AeroInside Insights, unlimited read access and receive the daily newsletter.

Pick your plan and subscribe

Partner

Blockaviation logo

A new way to document and demonstrate airworthiness compliance and aircraft value. Find out more.

Virtual Speech logo

ELITE Simulation Solutions is a leading global provider of Flight Simulation Training Devices, IFR training software as well as flight controls and related services. Find out more.

Get updates

Never miss an article from AeroInside. Subscribe to our free weekly newsletter and join 5353 existing subscribers.

By subscribing, you accept our terms and conditions and that you've read our privacy policy.

AeroInside Blog
Popular aircraft
Airbus A320
Boeing 737-800
Boeing 737-800 MAX
Popular airlines
American Airlines
United
Delta
Air Canada
Lufthansa
British Airways